This is the latest recevied weather packets stored in our database for station/object EA2RCU-15. If no packets are shown the sender has not sent any weather packets the latest 10 day(s).
| Time | Temp. | Humidity | Pressure | Rain* | Wind** | Luminosity | Snow |
|---|---|---|---|---|---|---|---|
| 1778087405 | 26.67° C | 25% | 996 hPa | 0 mm | - | - | - |
| 1778087105 | 27.22° C | 23% | 996 hPa | 0 mm | - | - | - |
| 1778086805 | 28.33° C | 23% | 996 hPa | 0 mm | - | - | - |
| 1778086505 | 27.78° C | 27% | 996 hPa | 0 mm | - | - | - |
| 1778086206 | 26.67° C | 31% | 996 hPa | 0 mm | - | - | - |
| 1778085905 | 25° C | 36% | 996 hPa | 0 mm | - | - | - |
| 1778085606 | 22.22° C | 52% | 996 hPa | 0 mm | - | - | - |
| 1778085305 | 18.89° C | 60% | 996 hPa | 0 mm | - | - | - |
| 1778085005 | 17.78° C | 64% | 996 hPa | 0 mm | - | - | - |
| 1778084705 | 17.22° C | 67% | 996 hPa | 0 mm | - | - | - |
| 1778084405 | 16.67° C | 68% | 996 hPa | 0 mm | - | - | - |
| 1778084105 | 16.11° C | 67% | 996 hPa | 0 mm | - | - | - |
| 1778083805 | 16.11° C | 67% | 996 hPa | 0 mm | - | - | - |
| 1778083505 | 15.56° C | 67% | 996 hPa | 0 mm | - | - | - |
| 1778083205 | 15.56° C | 67% | 996 hPa | 0 mm | - | - | - |
| 1778082905 | 15.56° C | 66% | 996 hPa | 0 mm | - | - | - |
| 1778082605 | 15.56° C | 65% | 996 hPa | 0 mm | - | - | - |
| 1778082305 | 16.11° C | 65% | 996 hPa | 0 mm | - | - | - |
| 1778082005 | 16.11° C | 63% | 996 hPa | 0 mm | - | - | - |
| 1778081705 | 16.67° C | 62% | 996 hPa | 0 mm | - | - | - |
| 1778081406 | 16.67° C | 62% | 996 hPa | 0 mm | - | - | - |
| 1778081105 | 17.22° C | 60% | 997 hPa | 0 mm | - | - | - |
| 1778080805 | 17.22° C | 61% | 997 hPa | 0 mm | - | - | - |
| 1778080505 | 17.22° C | 60% | 997 hPa | 0 mm | - | - | - |
| 1778080205 | 17.22° C | 60% | 997 hPa | 0 mm | - | - | - |
* Rain latest hour (hover to see other rain measurements)
** Current wind speed in m/s (hover to see current wind gust speed)